Time;durP1;ratioP1;P1;durP2;ratioP2;P2;SDS_P1;SDS_P2;PMS_P1;PMS_P2;Temp;Humidity;BMP_temperature;BMP_pressure;BME280_temperature;BME280_humidity;BME280_pressure;Samples;Min_cycle;Max_cycle;Signal;HPM_P1;HPM_P2
2021/12/16 00:03:19;;;;;;;1.48;1.42;;;;;;;3.93;98.58;100581.63;4952333;29;20101;-70
2021/12/16 00:08:48;;;;;;;2.33;1.55;;;;;;;3.95;99.49;100584.25;4993787;28;20113;-70
2021/12/16 00:33:34;;;;;;;1.90;1.73;;;;;;;3.80;100.00;100577.72;5032349;28;20034;-70
2021/12/16 00:36:02;;;;;;;2.30;1.95;;;;;;;3.88;99.83;100574.59;5033846;28;20052;-70
2021/12/16 00:38:28;;;;;;;2.97;1.45;;;;;;;3.92;100.00;100579.03;5043488;28;20031;-70
2021/12/16 00:40:55;;;;;;;2.13;2.00;;;;;;;3.93;100.00;100576.50;5051980;28;20111;-70
2021/12/16 00:43:29;;;;;;;1.38;1.38;;;;;;;3.94;99.28;100573.13;5051734;28;20029;-70
2021/12/16 00:49:04;;;;;;;1.30;1.27;;;;;;;4.13;98.94;100574.69;5051958;28;20032;-70
2021/12/16 00:54:11;;;;;;;2.55;2.40;;;;;;;3.88;99.86;100572.03;5051730;28;20043;-70
2021/12/16 00:56:54;;;;;;;2.40;1.98;;;;;;;3.99;99.03;100570.72;5051590;28;20021;-70
2021/12/16 00:59:20;;;;;;;1.80;1.70;;;;;;;3.94;99.39;100577.38;5051773;28;20032;-70
2021/12/16 05:15:37;;;;;;;4.90;3.73;;;;;;;3.74;96.20;100615.94;6067271;23;20040;31
2021/12/16 05:18:07;;;;;;;1.63;1.52;;;;;;;3.67;96.91;100613.94;4893599;29;20533;-69
2021/12/16 05:20:41;;;;;;;3.28;2.25;;;;;;;3.69;97.37;100609.75;4896744;29;20035;-69
2021/12/16 05:28:19;;;;;;;2.92;2.72;;;;;;;3.71;97.60;100610.69;4896862;29;20136;-69
2021/12/16 05:30:45;;;;;;;1.90;1.73;;;;;;;3.76;96.95;100616.00;4897110;29;20104;-69
2021/12/16 05:33:12;;;;;;;1.98;1.88;;;;;;;3.88;97.47;100618.19;4896701;29;20036;-69
2021/12/16 05:35:38;;;;;;;3.78;2.50;;;;;;;3.86;97.05;100621.53;4897436;29;20036;-70
2021/12/16 05:38:04;;;;;;;5.40;2.25;;;;;;;3.78;97.15;100629.75;4907360;29;20039;-69
2021/12/16 05:40:29;;;;;;;2.38;1.67;;;;;;;3.78;96.60;100630.63;4915684;29;20020;-70
2021/12/16 05:42:59;;;;;;;2.25;2.15;;;;;;;3.81;96.50;100637.56;4915490;29;20393;-70
2021/12/16 05:45:26;;;;;;;2.22;2.08;;;;;;;3.77;96.86;100636.59;4915622;29;20048;-69
2021/12/16 05:47:54;;;;;;;2.30;2.15;;;;;;;3.89;97.29;100643.00;4915406;29;20058;-69
2021/12/16 05:50:21;;;;;;;2.30;1.88;;;;;;;3.79;96.56;100652.88;4915234;29;20039;-70
2021/12/16 05:52:47;;;;;;;3.60;2.35;;;;;;;3.70;97.20;100649.97;4915308;29;20103;-70
2021/12/16 05:55:14;;;;;;;3.45;3.03;;;;;;;3.82;96.73;100653.03;4915223;29;20124;-69
2021/12/16 05:57:40;;;;;;;7.63;3.28;;;;;;;3.76;96.67;100663.00;4915415;29;20379;-69
2021/12/16 06:00:12;;;;;;;2.75;2.28;;;;;;;3.65;96.97;100661.72;4918704;29;20028;-69
2021/12/16 06:02:37;;;;;;;2.85;2.65;;;;;;;3.74;96.13;100667.22;4918559;29;20107;-70
2021/12/16 06:05:03;;;;;;;5.57;3.33;;;;;;;3.94;95.62;100664.56;4918903;29;20123;-70
2021/12/16 06:07:29;;;;;;;1.50;1.50;;;;;;;3.91;94.76;100664.44;4918261;29;20031;-70
2021/12/16 06:09:54;;;;;;;2.90;2.22;;;;;;;3.86;95.28;100674.50;4901979;29;20036;-70
2021/12/16 06:12:21;;;;;;;1.98;1.88;;;;;;;3.89;96.22;100673.75;4899527;29;20025;-69
2021/12/16 06:28:33;;;;;;;4.43;2.08;;;;;;;4.26;92.42;100679.50;4878493;29;20113;-69
2021/12/16 06:30:59;;;;;;;1.83;1.67;;;;;;;4.25;91.82;100672.59;4895707;29;20098;-69
2021/12/16 06:33:24;;;;;;;1.95;1.65;;;;;;;4.09;92.84;100671.16;4905380;29;20059;-69
2021/12/16 06:35:52;;;;;;;2.17;1.73;;;;;;;4.00;93.43;100675.06;4901312;29;20089;-69
2021/12/16 06:38:19;;;;;;;2.63;2.42;;;;;;;4.16;92.85;100673.94;4914038;29;20040;-70
2021/12/16 06:40:45;;;;;;;2.65;2.35;;;;;;;4.09;93.13;100666.03;4899055;29;20096;-70
2021/12/16 06:43:13;;;;;;;3.78;2.80;;;;;;;4.17;93.11;100663.75;4899135;29;20283;-69
2021/12/16 06:45:42;;;;;;;5.22;2.03;;;;;;;4.31;93.70;100661.72;4897826;29;20029;-70
2021/12/16 06:48:15;;;;;;;1.73;1.65;;;;;;;4.17;93.71;100663.75;4898914;29;20113;-70
2021/12/16 06:50:53;;;;;;;1.58;1.52;;;;;;;4.24;94.45;100667.41;4898946;29;20060;-70
2021/12/16 06:53:43;;;;;;;5.00;4.43;;;;;;;4.31;93.54;100672.84;4902103;29;20020;-69
2021/12/16 06:56:15;;;;;;;;;;;;;;;4.17;94.00;100674.03;4899482;29;20050;-70
2021/12/16 06:58:48;;;;;;;2.13;1.85;;;;;;;4.04;93.86;100682.06;4898897;29;19912;-70
2021/12/16 07:01:37;;;;;;;1.83;1.73;;;;;;;4.15;93.45;100679.91;4898722;29;20025;-70
2021/12/16 07:04:05;;;;;;;5.47;1.73;;;;;;;4.22;93.23;100682.75;4898873;29;20056;-70
2021/12/16 07:06:32;;;;;;;2.05;1.95;;;;;;;4.06;94.10;100694.13;4906161;29;20031;-70
2021/12/16 07:09:03;;;;;;;3.55;3.25;;;;;;;4.10;94.87;100687.41;4909515;29;20055;-69
2021/12/16 07:11:30;;;;;;;3.72;2.35;;;;;;;4.10;93.76;100692.53;4917331;29;20051;-70
2021/12/16 07:14:01;;;;;;;4.05;2.90;;;;;;;4.09;93.21;100701.06;4917251;29;20091;-69
2021/12/16 07:16:29;;;;;;;1.92;1.85;;;;;;;4.28;93.05;100702.66;4917009;29;20060;-70
2021/12/16 07:18:56;;;;;;;3.67;2.47;;;;;;;4.00;93.98;100701.56;4917297;29;20036;-70
2021/12/16 07:21:23;;;;;;;7.18;2.67;;;;;;;3.92;94.96;100710.66;4917318;29;20031;-69
2021/12/16 07:23:48;;;;;;;3.33;3.03;;;;;;;3.93;95.62;100719.22;4906391;29;20036;-69
2021/12/16 07:26:14;;;;;;;4.47;2.97;;;;;;;3.88;96.12;100710.47;4916922;29;20035;-69
2021/12/16 07:28:39;;;;;;;4.70;4.25;;;;;;;3.93;96.43;100704.72;4917191;29;20031;-69
2021/12/16 07:31:04;;;;;;;3.63;2.10;;;;;;;3.90;96.51;100716.53;4917013;29;20123;-70
2021/12/16 07:33:30;;;;;;;4.03;3.60;;;;;;;3.90;96.34;100713.97;4916989;29;20039;-70
2021/12/16 07:35:56;;;;;;;5.80;4.85;;;;;;;3.86;96.00;100713.84;4916681;29;20036;-69
2021/12/16 07:38:23;;;;;;;2.42;2.22;;;;;;;3.85;96.50;100722.34;4908997;29;20024;-69
2021/12/16 07:40:50;;;;;;;2.20;1.98;;;;;;;3.93;96.81;100719.22;4916933;29;20028;-70
2021/12/16 07:46:01;;;;;;;2.50;2.30;;;;;;;3.93;95.97;100724.34;4916935;29;20039;-69
2021/12/16 07:48:27;;;;;;;0.85;0.85;;;;;;;3.87;96.07;100725.00;4916754;29;20024;-69
2021/12/16 07:50:56;;;;;;;2.88;2.38;;;;;;;3.95;95.40;100717.59;4916694;29;20470;-70
2021/12/16 07:53:22;;;;;;;2.47;2.27;;;;;;;3.95;95.04;100732.97;4913448;29;20034;-69
2021/12/16 07:55:49;;;;;;;2.92;2.42;;;;;;;4.00;94.79;100726.34;4900707;29;20039;-69
2021/12/16 07:58:15;;;;;;;1.35;1.30;;;;;;;4.07;94.73;100730.91;4897744;29;20061;-70
2021/12/16 08:00:41;;;;;;;4.68;2.65;;;;;;;4.04;94.43;100728.22;4897902;29;20437;-70
2021/12/16 08:03:10;;;;;;;3.85;3.20;;;;;;;4.05;95.14;100732.53;4897687;29;20402;-69
2021/12/16 08:05:40;;;;;;;3.10;2.28;;;;;;;4.05;94.48;100727.41;4897375;29;20040;-70
2021/12/16 08:08:08;;;;;;;3.08;2.75;;;;;;;4.16;94.84;100732.94;4907298;29;20486;-69
2021/12/16 08:10:34;;;;;;;3.22;2.03;;;;;;;4.28;94.64;100729.19;4916193;29;20406;-70
2021/12/16 08:13:00;;;;;;;2.55;2.42;;;;;;;4.20;94.01;100730.56;4916430;29;20024;-70
2021/12/16 08:15:26;;;;;;;2.97;2.78;;;;;;;4.15;93.91;100737.19;4916044;29;20039;-69
2021/12/16 08:17:54;;;;;;;2.33;2.10;;;;;;;4.02;94.52;100735.00;4916209;29;20111;-69
2021/12/16 08:20:20;;;;;;;3.13;2.75;;;;;;;4.10;94.98;100737.03;4915955;29;20035;-69
2021/12/16 08:22:48;;;;;;;1.45;1.38;;;;;;;4.22;94.56;100744.34;4912812;29;20040;-70
2021/12/16 08:25:16;;;;;;;4.88;2.25;;;;;;;4.43;93.61;100745.97;4900728;29;20040;-70
2021/12/16 08:27:42;;;;;;;5.30;2.42;;;;;;;4.25;93.42;100748.69;4916026;29;20024;-69
2021/12/16 08:30:10;;;;;;;2.97;2.38;;;;;;;4.26;93.66;100756.47;4916228;29;20044;-70
2021/12/16 08:32:35;;;;;;;3.70;2.15;;;;;;;4.19;93.53;100757.03;4915962;29;20482;-69
2021/12/16 08:35:02;;;;;;;2.35;1.98;;;;;;;4.19;93.32;100763.84;4916037;29;20035;-70
2021/12/16 08:37:28;;;;;;;2.05;1.95;;;;;;;4.35;93.57;100769.66;4910217;29;20040;-69
2021/12/16 08:39:54;;;;;;;2.15;1.92;;;;;;;4.28;93.06;100771.91;4913640;29;20389;-69
2021/12/16 08:42:19;;;;;;;1.92;1.77;;;;;;;4.27;93.59;100773.63;4915954;29;20448;-69
2021/12/16 08:44:44;;;;;;;1.33;1.33;;;;;;;4.26;93.71;100765.88;4915983;29;20119;-70
2021/12/16 08:47:13;;;;;;;1.27;1.27;;;;;;;4.33;93.22;100767.84;4915619;29;20084;-69
2021/12/16 08:49:39;;;;;;;2.40;2.25;;;;;;;4.18;92.86;100777.50;4915881;29;20032;-69
2021/12/16 08:52:08;;;;;;;3.10;1.98;;;;;;;4.16;93.38;100780.03;4912653;29;20025;-69
2021/12/16 08:54:34;;;;;;;1.48;1.42;;;;;;;4.12;93.56;100784.16;4908210;29;20016;-69
2021/12/16 08:57:00;;;;;;;2.92;2.67;;;;;;;4.30;93.72;100778.88;4915694;29;20039;-70
2021/12/16 08:59:26;;;;;;;6.70;4.07;;;;;;;4.28;92.35;100779.63;4915770;29;20060;-69
2021/12/16 09:01:54;;;;;;;1.70;1.60;;;;;;;4.17;91.71;100776.63;4915680;29;20068;-69
2021/12/16 09:04:23;;;;;;;2.30;1.52;;;;;;;4.11;92.00;100784.09;4915652;29;20083;-70
2021/12/16 09:06:49;;;;;;;3.38;2.70;;;;;;;4.12;92.42;100780.72;4915446;29;20533;-69
2021/12/16 09:09:14;;;;;;;2.95;2.75;;;;;;;4.28;91.95;100780.50;4904436;29;20474;-69
2021/12/16 09:11:55;;;;;;;1.73;1.63;;;;;;;4.33;91.08;100780.69;4896819;29;20045;-69
2021/12/16 09:14:20;;;;;;;2.95;2.53;;;;;;;4.23;91.49;100776.88;4863497;29;20072;-69
2021/12/16 09:16:46;;;;;;;1.50;1.48;;;;;;;4.49;90.92;100779.56;4896385;29;20074;-69
2021/12/16 09:19:11;;;;;;;1.95;1.45;;;;;;;4.40;91.02;100792.94;4896691;29;20573;-70
2021/12/16 09:21:37;;;;;;;2.78;2.58;;;;;;;4.42;91.41;100793.00;4896671;29;20028;-69
2021/12/16 09:24:04;;;;;;;3.75;2.30;;;;;;;4.37;91.23;100801.38;4906346;29;20039;-70
2021/12/16 09:26:29;;;;;;;1.92;1.73;;;;;;;4.27;91.94;100803.53;4915357;29;20032;-69
2021/12/16 09:28:56;;;;;;;3.67;1.67;;;;;;;4.30;92.14;100801.97;4915474;29;20032;-69
2021/12/16 09:31:25;;;;;;;1.83;1.67;;;;;;;4.36;91.84;100820.16;4915472;29;20079;-66
2021/12/16 09:33:52;;;;;;;2.30;2.10;;;;;;;4.33;91.95;100819.16;4917695;29;20024;-66
2021/12/16 09:36:21;;;;;;;2.85;1.60;;;;;;;4.43;91.74;100810.13;4919000;29;20389;-66
2021/12/16 09:38:48;;;;;;;3.65;3.00;;;;;;;4.51;90.69;100813.91;4911139;29;20024;-70
2021/12/16 09:41:13;;;;;;;1.80;1.50;;;;;;;4.50;91.47;100814.72;4919094;29;20059;-70
2021/12/16 09:43:43;;;;;;;4.03;2.88;;;;;;;4.63;90.96;100809.22;4918949;29;20058;-70
2021/12/16 09:46:12;;;;;;;2.17;2.08;;;;;;;4.74;90.92;100813.09;4918702;29;20098;-70
2021/12/16 09:48:39;;;;;;;3.17;2.40;;;;;;;4.82;90.53;100816.81;4918915;29;20074;-68
2021/12/16 09:51:09;;;;;;;1.33;1.33;;;;;;;4.81;90.61;100814.19;4918973;29;20055;-68
2021/12/16 09:53:37;;;;;;;2.20;2.08;;;;;;;4.88;90.64;100814.50;4909572;29;20025;-68
2021/12/16 09:56:04;;;;;;;1.67;1.58;;;;;;;4.69;91.18;100814.63;4917192;29;20389;-68
2021/12/16 09:58:35;;;;;;;2.10;1.83;;;;;;;4.83;90.23;100815.13;4918664;29;20024;-68
2021/12/16 10:01:01;;;;;;;1.85;1.77;;;;;;;4.69;90.35;100817.19;4918661;29;20027;-69
2021/12/16 10:03:27;;;;;;;2.08;1.90;;;;;;;4.59;90.97;100817.63;4918569;29;20082;-68
2021/12/16 10:05:53;;;;;;;1.77;1.63;;;;;;;4.51;91.18;100811.31;4918220;29;20036;-68
2021/12/16 10:08:19;;;;;;;1.13;1.13;;;;;;;4.61;91.25;100816.88;4909317;29;20516;-68
2021/12/16 10:10:45;;;;;;;2.85;1.75;;;;;;;4.71;91.27;100815.53;4918329;29;20024;-68
2021/12/16 10:13:13;;;;;;;3.40;2.20;;;;;;;4.84;90.79;100817.75;4918487;29;20032;-68
2021/12/16 10:18:13;;;;;;;2.03;1.58;;;;;;;4.76;90.87;100811.44;4918314;29;20023;-68
2021/12/16 10:20:41;;;;;;;6.07;2.58;;;;;;;5.02;90.20;100811.53;4918340;29;20024;-69
2021/12/16 10:23:17;;;;;;;2.80;2.45;;;;;;;5.11;89.96;100805.06;4907040;29;20497;-69
2021/12/16 10:25:50;;;;;;;2.03;1.38;;;;;;;5.18;88.88;100803.59;4903344;29;20032;-70
2021/12/16 10:28:26;;;;;;;3.67;2.83;;;;;;;5.21;88.69;100803.69;4899325;29;20406;-70
2021/12/16 10:31:17;;;;;;;2.13;1.95;;;;;;;5.14;88.29;100804.31;4899174;29;20033;-70
2021/12/16 10:34:04;;;;;;;6.15;2.25;;;;;;;5.05;88.39;100803.97;4898028;29;20164;-70
2021/12/16 10:36:34;;;;;;;4.07;3.63;;;;;;;5.04;88.46;100807.34;4906432;29;20076;-70
2021/12/16 10:39:10;;;;;;;2.35;2.08;;;;;;;5.19;87.82;100802.78;4910214;29;20534;-70
2021/12/16 10:41:42;;;;;;;2.90;2.38;;;;;;;5.02;88.47;100803.84;4917920;29;20060;-70
2021/12/16 10:44:15;;;;;;;3.60;2.45;;;;;;;5.12;88.71;100800.78;4917577;29;20020;-70
2021/12/16 10:47:06;;;;;;;2.92;2.72;;;;;;;5.26;87.71;100809.88;4917788;29;20035;-70
2021/12/16 10:49:38;;;;;;;1.90;1.75;;;;;;;5.27;87.23;100805.59;4917546;29;20517;-70
2021/12/16 10:52:16;;;;;;;4.85;3.13;;;;;;;5.55;87.11;100797.19;4914160;29;20468;-70
2021/12/16 10:54:47;;;;;;;1.98;1.88;;;;;;;5.29;86.37;100794.56;4909830;29;20028;-70
2021/12/16 10:57:14;;;;;;;2.20;2.00;;;;;;;5.43;86.69;100804.47;4917467;29;20110;-70
2021/12/16 10:59:46;;;;;;;2.53;1.88;;;;;;;5.61;85.70;100808.56;4917534;29;20079;-70
2021/12/16 11:02:16;;;;;;;3.05;2.25;;;;;;;5.39;86.29;100806.06;4917739;29;20047;-70
2021/12/16 11:04:44;;;;;;;;;;;;;;;5.44;86.30;100811.34;4917953;29;20050;-70
2021/12/16 11:07:39;;;;;;;1.10;1.10;;;;;;;5.46;86.23;100808.00;4914421;29;20360;-70
2021/12/16 11:10:11;;;;;;;1.38;1.33;;;;;;;5.30;86.15;100800.59;4916009;29;20397;-70
2021/12/16 11:12:42;;;;;;;1.88;1.75;;;;;;;5.28;86.85;100807.38;4917303;29;20403;-70
2021/12/16 11:15:12;;;;;;;2.40;2.17;;;;;;;5.32;86.75;100810.13;4917497;29;20050;-70
2021/12/16 11:17:45;;;;;;;7.93;2.83;;;;;;;5.31;86.88;100800.63;4916873;29;20045;-70
2021/12/16 11:20:32;;;;;;;2.63;1.88;;;;;;;5.50;86.98;100809.00;4917178;29;20030;-70
2021/12/16 11:23:09;;;;;;;8.18;2.58;;;;;;;5.57;86.11;100801.56;4912780;29;20508;-70
2021/12/16 11:25:48;;;;;;;2.65;1.65;;;;;;;5.68;86.06;100804.50;4911574;29;20413;-70
2021/12/16 11:28:13;;;;;;;3.88;2.50;;;;;;;5.74;85.99;100803.81;4916823;29;20080;-70
2021/12/16 11:30:49;;;;;;;3.08;1.67;;;;;;;5.82;84.77;100808.41;4973013;23;20047;-70
2021/12/16 11:33:23;;;;;;;3.70;2.08;;;;;;;5.65;85.17;100810.41;4955165;29;20055;-70
2021/12/16 11:36:02;;;;;;;4.47;1.65;;;;;;;5.59;85.84;100809.31;4957300;28;20106;-71
2021/12/16 11:38:33;;;;;;;1.58;1.48;;;;;;;5.62;85.37;100804.28;4956498;28;20082;-70
2021/12/16 11:41:04;;;;;;;2.00;1.58;;;;;;;5.91;85.87;100808.75;4936560;29;20020;-71
2021/12/16 11:43:37;;;;;;;5.95;3.10;;;;;;;5.88;85.51;100803.47;4935716;29;20032;-73
2021/12/16 11:46:07;;;;;;;1.70;1.60;;;;;;;6.01;84.79;100796.22;4935592;29;20107;-73
2021/12/16 11:48:35;;;;;;;4.60;3.05;;;;;;;5.68;84.64;100799.34;4935670;29;20047;-72
2021/12/16 11:51:05;;;;;;;2.80;2.45;;;;;;;5.61;85.29;100810.28;4935484;29;20114;-72
2021/12/16 11:53:35;;;;;;;;;;;;;;;5.47;85.67;100803.78;4943792;29;20531;-73
2021/12/16 11:56:00;;;;;;;2.63;2.42;;;;;;;5.70;86.03;100807.97;4951901;28;19921;-72
2021/12/16 11:58:31;;;;;;;2.70;1.98;;;;;;;5.77;85.43;100799.66;4954688;28;20392;-72
2021/12/16 12:00:58;;;;;;;5.28;3.97;;;;;;;5.81;85.00;100796.38;4954523;28;20027;-72
2021/12/16 12:03:33;;;;;;;8.15;2.60;;;;;;;5.95;84.68;100803.69;4954439;28;20481;-73
2021/12/16 12:05:58;;;;;;;3.95;3.25;;;;;;;5.73;84.93;100808.09;4954242;28;20031;-73
2021/12/16 12:08:31;;;;;;;1.75;1.63;;;;;;;5.59;85.32;100799.03;4946346;28;20034;-73
2021/12/16 12:11:01;;;;;;;4.50;3.30;;;;;;;5.62;85.51;100794.00;4954100;28;20385;-72
2021/12/16 12:13:29;;;;;;;3.40;2.70;;;;;;;5.75;85.24;100787.56;4954320;28;20106;-72
2021/12/16 12:16:07;;;;;;;5.35;2.92;;;;;;;5.99;85.62;100791.00;4954023;28;20027;-73
2021/12/16 12:18:36;;;;;;;2.30;2.08;;;;;;;5.81;84.78;100790.38;4954396;28;20027;-72
2021/12/16 12:21:17;;;;;;;1.95;1.85;;;;;;;5.89;84.80;100788.91;4954242;28;20071;-72
2021/12/16 12:23:43;;;;;;;4.72;3.05;;;;;;;6.07;84.50;100783.53;4943720;28;20385;-72
2021/12/16 12:26:16;;;;;;;4.68;3.35;;;;;;;6.16;84.06;100788.97;4952958;29;20503;-72
2021/12/16 12:28:56;;;;;;;6.40;3.83;;;;;;;6.07;84.05;100775.81;4954223;28;20035;-73
2021/12/16 12:31:22;;;;;;;;;;;;;;;6.09;83.92;100776.72;4954502;28;20019;-72
2021/12/16 12:33:48;;;;;;;1.77;1.67;;;;;;;5.97;84.09;100774.63;4954110;28;19927;-72
2021/12/16 12:36:16;;;;;;;2.08;1.85;;;;;;;5.92;84.19;100774.50;4953798;28;20034;-73
2021/12/16 12:38:42;;;;;;;2.63;2.17;;;;;;;6.07;83.68;100762.94;4945886;28;20031;-73
2021/12/16 12:41:08;;;;;;;1.90;1.80;;;;;;;6.24;83.32;100755.75;4954340;28;20019;-72
2021/12/16 12:43:34;;;;;;;3.17;2.40;;;;;;;6.32;82.51;100754.28;4953990;28;20027;-73
2021/12/16 12:46:02;;;;;;;4.97;1.45;;;;;;;6.22;83.19;100748.00;4953726;28;20031;-73
2021/12/16 12:48:27;;;;;;;1.77;1.67;;;;;;;6.43;82.24;100740.94;4953967;28;20040;-73
2021/12/16 12:50:58;;;;;;;2.55;1.40;;;;;;;6.60;81.54;100746.59;4953797;28;20019;-72
2021/12/16 12:53:34;;;;;;;2.05;1.85;;;;;;;6.65;80.84;100747.59;4945822;28;20019;-73
2021/12/16 12:56:12;;;;;;;4.50;3.30;;;;;;;6.69;80.83;100756.28;4951768;29;20098;-73
2021/12/16 12:59:01;;;;;;;1.95;1.85;;;;;;;6.88;80.44;100757.69;4953924;28;20063;-73
2021/12/16 13:01:54;;;;;;;2.05;1.85;;;;;;;6.69;80.96;100756.28;4953818;28;20045;-73
2021/12/16 13:04:25;;;;;;;3.70;1.88;;;;;;;6.34;82.04;100761.25;4952261;28;20046;-73
2021/12/16 13:07:01;;;;;;;4.63;2.45;;;;;;;6.56;81.52;100761.91;4954022;28;20030;-73
2021/12/16 13:09:30;;;;;;;1.80;1.70;;;;;;;6.61;81.77;100768.06;4951197;28;20028;-73
2021/12/16 13:14:49;;;;;;;2.58;1.92;;;;;;;6.55;81.90;100765.31;5069265;28;20383;-72
2021/12/16 13:23:34;;;;;;;1.75;1.65;;;;;;;6.76;81.84;100759.91;5073544;28;20032;-72
2021/12/16 13:35:11;;;;;;;2.38;2.17;;;;;;;6.66;81.57;100759.63;5029262;28;20065;-72
2021/12/16 13:37:43;;;;;;;2.40;1.75;;;;;;;6.87;80.93;100762.00;5038691;28;20381;-72
2021/12/16 13:40:22;;;;;;;2.47;1.83;;;;;;;6.88;81.85;100760.28;5010151;28;20029;-72
2021/12/16 13:42:57;;;;;;;1.83;1.70;;;;;;;6.85;82.12;100758.47;5009305;28;20109;-71
2021/12/16 13:45:30;;;;;;;3.58;2.00;;;;;;;6.73;81.89;100763.28;5009115;28;20033;-72
2021/12/16 13:48:28;;;;;;;4.55;1.95;;;;;;;6.78;81.88;100768.56;5009302;28;20034;-71
2021/12/16 14:05:03;;;;;;;2.25;2.05;;;;;;;6.48;82.56;100771.06;4989527;28;20488;-70
2021/12/16 14:07:55;;;;;;;4.95;2.53;;;;;;;6.41;82.34;100781.19;5013483;28;20036;-70
2021/12/16 14:10:32;;;;;;;2.17;1.98;;;;;;;6.31;82.41;100788.59;4989179;28;20102;-70
2021/12/16 14:47:09;;;;;;;1.58;1.48;;;;;;;6.07;84.30;100809.25;5014437;28;20505;-70
2021/12/16 14:49:41;;;;;;;2.15;1.95;;;;;;;6.10;84.76;100804.22;5014531;28;20116;-70
2021/12/16 14:52:23;;;;;;;2.47;1.40;;;;;;;5.98;86.43;100804.69;5010434;28;20102;-69
2021/12/16 14:54:58;;;;;;;1.85;1.75;;;;;;;6.02;86.45;100805.66;5006068;28;20018;-70
2021/12/16 14:57:36;;;;;;;2.53;2.33;;;;;;;5.92;87.79;100807.94;5014162;28;20025;-71
2021/12/16 15:00:13;;;;;;;4.60;2.63;;;;;;;5.89;85.97;100801.78;5014340;28;20028;-71
2021/12/16 15:02:42;;;;;;;3.08;1.30;;;;;;;5.70;86.72;100807.97;5014104;28;20041;-71
2021/12/16 15:05:32;;;;;;;1.50;1.38;;;;;;;5.56;87.47;100806.63;5014278;28;20497;-70
2021/12/16 15:08:47;;;;;;;1.88;1.77;;;;;;;5.51;88.42;100805.59;4999938;28;20137;-71
2021/12/16 15:11:28;;;;;;;2.45;2.22;;;;;;;5.37;89.32;100808.59;4994847;28;20396;-71
2021/12/16 15:13:59;;;;;;;1.42;1.13;;;;;;;5.33;89.51;100809.28;4994472;28;20114;-71
2021/12/16 15:16:46;;;;;;;2.35;1.55;;;;;;;5.33;89.59;100821.25;4994349;28;20022;-71
2021/12/16 15:43:36;;;;;;;3.67;2.83;;;;;;;4.46;94.47;100831.69;5013693;28;20104;-70
2021/12/16 15:46:05;;;;;;;4.22;2.53;;;;;;;4.38;95.13;100833.91;5013379;28;20455;-70
2021/12/16 15:48:30;;;;;;;3.63;2.33;;;;;;;4.32;95.61;100838.81;5013340;28;20105;-71
2021/12/16 15:51:05;;;;;;;3.25;2.92;;;;;;;4.30;95.37;100840.47;5013422;28;20105;-70
2021/12/16 15:53:35;;;;;;;2.40;2.20;;;;;;;4.32;95.07;100843.94;5004108;28;20030;-70
2021/12/16 15:56:06;;;;;;;5.03;2.65;;;;;;;4.09;95.82;100854.97;5011033;28;20076;-69
2021/12/16 15:58:38;;;;;;;4.22;3.53;;;;;;;4.12;95.32;100855.09;5013390;28;20033;-69
2021/12/16 16:01:08;;;;;;;30.83;15.10;;;;;;;4.02;95.61;100858.09;5013182;28;20034;-69
2021/12/16 16:03:34;;;;;;;16.35;11.43;;;;;;;3.97;96.25;100857.03;5013488;28;20399;-69
2021/12/16 16:06:03;;;;;;;6.82;6.13;;;;;;;3.93;96.28;100850.00;5010078;28;20496;-70
2021/12/16 16:08:31;;;;;;;16.17;10.83;;;;;;;3.95;96.42;100856.94;5004990;28;20117;-70
2021/12/16 16:11:04;;;;;;;3.88;3.15;;;;;;;3.88;96.80;100854.94;5013152;28;20388;-70
2021/12/16 16:13:35;;;;;;;6.13;2.47;;;;;;;3.89;96.92;100850.69;5012973;28;20033;-70
2021/12/16 16:16:03;;;;;;;1.55;1.45;;;;;;;3.93;97.07;100852.56;5012752;28;20037;-70
2021/12/16 16:21:12;;;;;;;2.45;2.25;;;;;;;3.96;97.02;100850.13;5013010;28;20026;-70
2021/12/16 16:23:41;;;;;;;5.72;3.15;;;;;;;3.98;96.72;100849.38;5002865;28;20027;-70
2021/12/16 16:26:11;;;;;;;8.02;5.20;;;;;;;4.04;96.41;100864.16;5011074;28;20033;-70
2021/12/16 16:28:38;;;;;;;3.63;3.33;;;;;;;4.02;96.96;100852.97;5011584;28;20057;-70
2021/12/16 16:31:08;;;;;;;2.33;2.00;;;;;;;4.00;96.90;100859.69;5011468;28;20422;-70
2021/12/16 16:33:35;;;;;;;2.88;2.65;;;;;;;3.97;96.87;100859.59;5012700;28;20034;-70
2021/12/16 16:36:07;;;;;;;2.63;2.30;;;;;;;4.01;97.21;100859.78;5009588;28;20030;-69
2021/12/16 16:38:43;;;;;;;1.92;1.80;;;;;;;3.95;97.40;100861.19;5004371;28;20022;-70
2021/12/16 16:41:15;;;;;;;3.40;2.88;;;;;;;3.98;97.23;100862.22;5012915;28;20088;-70
2021/12/16 16:43:50;;;;;;;4.25;2.00;;;;;;;4.02;97.49;100852.97;5012569;28;20140;-70
2021/12/16 16:46:19;;;;;;;3.30;2.10;;;;;;;4.03;97.01;100862.41;5010991;28;20120;-69
2021/12/16 16:51:44;;;;;;;;;;;;;;;4.02;97.36;100843.56;5012930;28;20037;-69
2021/12/16 16:54:30;;;;;;;4.38;2.67;;;;;;;4.03;97.11;100844.44;5003327;28;19917;-70
2021/12/16 16:57:08;;;;;;;1.50;1.48;;;;;;;4.00;97.58;100837.50;5012210;28;20030;-70
2021/12/16 16:59:43;;;;;;;1.58;1.48;;;;;;;4.09;97.99;100826.75;5012624;28;20022;-70
2021/12/16 17:02:27;;;;;;;1.75;1.65;;;;;;;3.96;97.43;100822.78;5012371;28;20021;-70
2021/12/16 17:05:16;;;;;;;4.90;2.25;;;;;;;4.00;97.76;100824.66;5012241;28;20030;-70
2021/12/16 17:08:03;;;;;;;1.63;1.50;;;;;;;4.02;97.61;100841.00;5002208;28;20077;-70
2021/12/16 17:10:55;;;;;;;2.92;2.63;;;;;;;3.82;97.41;100841.84;4973463;28;20034;-68
2021/12/16 17:13:38;;;;;;;1.20;1.20;;;;;;;3.83;98.26;100836.81;4973154;28;20019;-68
2021/12/16 17:18:42;;;;;;;6.75;2.60;;;;;;;3.71;98.74;100828.56;4973418;28;20027;-70
2021/12/16 17:21:33;;;;;;;2.55;2.08;;;;;;;3.70;98.66;100831.97;4973336;28;20391;-68
2021/12/16 17:24:03;;;;;;;2.20;1.95;;;;;;;3.73;98.98;100838.91;4996428;28;20399;-68
2021/12/16 17:26:33;;;;;;;2.40;2.20;;;;;;;3.78;99.96;100847.69;5011651;28;20033;-68
2021/12/16 17:29:13;;;;;;;4.38;2.83;;;;;;;3.58;99.60;100846.81;5012063;28;20091;-68
2021/12/16 17:31:58;;;;;;;2.38;1.85;;;;;;;3.61;99.17;100846.94;5012208;28;20510;-68
2021/12/16 17:34:36;;;;;;;2.63;2.10;;;;;;;3.46;99.95;100839.47;5012430;28;20042;-68
2021/12/16 17:37:06;;;;;;;2.83;2.05;;;;;;;3.39;100.00;100836.59;5007478;28;20391;-68
2021/12/16 17:39:38;;;;;;;1.95;1.85;;;;;;;3.33;100.00;100837.16;5005958;28;20032;-68
2021/12/16 17:42:08;;;;;;;2.25;1.30;;;;;;;3.33;100.00;100832.91;5012084;28;20030;-68
2021/12/16 17:44:34;;;;;;;3.42;2.47;;;;;;;3.30;100.00;100822.56;5011947;28;20420;-68
2021/12/16 17:47:08;;;;;;;1.55;1.45;;;;;;;3.20;100.00;100829.75;5011713;28;20072;-68
2021/12/16 17:49:33;;;;;;;1.73;1.63;;;;;;;3.10;100.00;100813.13;5011762;28;20029;-68
2021/12/16 17:52:04;;;;;;;3.00;2.28;;;;;;;2.91;100.00;100831.00;5008140;28;20476;-68
2021/12/16 17:54:30;;;;;;;2.28;2.15;;;;;;;2.96;100.00;100830.41;5003888;28;20022;-68
2021/12/16 17:56:58;;;;;;;2.85;2.65;;;;;;;2.95;100.00;100838.00;5011592;28;20526;-68
2021/12/16 17:59:37;;;;;;;2.90;2.67;;;;;;;2.80;100.00;100844.19;5012502;28;20033;-68
2021/12/16 18:02:04;;;;;;;10.02;3.42;;;;;;;2.68;100.00;100842.72;5015459;28;20382;-68
2021/12/16 18:04:33;;;;;;;3.47;3.08;;;;;;;2.57;100.00;100838.00;5015360;28;20048;-68
2021/12/16 18:07:03;;;;;;;2.22;2.00;;;;;;;2.49;100.00;100852.09;5011198;28;20065;-68
2021/12/16 18:09:33;;;;;;;2.38;1.58;;;;;;;2.47;100.00;100857.97;5009220;28;20454;-68
2021/12/16 18:12:15;;;;;;;2.47;2.38;;;;;;;2.45;100.00;100859.53;5015412;28;20117;-68
2021/12/16 18:14:58;;;;;;;1.60;1.50;;;;;;;2.49;100.00;100866.56;5015207;28;20084;-68
2021/12/16 18:17:34;;;;;;;2.80;2.45;;;;;;;2.35;100.00;100877.81;5015228;28;20084;-68
2021/12/16 18:20:33;;;;;;;1.80;1.40;;;;;;;2.37;100.00;100877.09;5015121;28;20426;-68
2021/12/16 18:23:02;;;;;;;3.50;1.67;;;;;;;2.35;100.00;100878.69;5010604;28;20360;-68
2021/12/16 18:25:34;;;;;;;3.08;2.08;;;;;;;2.31;100.00;100872.53;5008212;28;20269;-68
2021/12/16 18:28:05;;;;;;;3.42;3.13;;;;;;;2.26;100.00;100868.88;5015021;28;20084;-68
2021/12/16 18:30:36;;;;;;;1.65;1.60;;;;;;;2.27;100.00;100875.78;5014928;28;20026;-68
2021/12/16 18:33:08;;;;;;;5.65;3.70;;;;;;;2.20;100.00;100868.59;5014777;28;20033;-68
2021/12/16 18:35:37;;;;;;;4.45;4.03;;;;;;;2.16;100.00;100860.69;5014268;28;20034;-68
2021/12/16 18:38:10;;;;;;;2.80;2.57;;;;;;;2.17;100.00;100868.44;5004649;28;20030;-68
2021/12/16 18:40:38;;;;;;;2.80;2.58;;;;;;;2.17;100.00;100870.97;5014736;28;20033;-68
2021/12/16 18:43:07;;;;;;;3.22;2.92;;;;;;;2.12;100.00;100869.88;5014777;28;20518;-67